Time;durP1;ratioP1;P1;durP2;ratioP2;P2;SDS_P1;SDS_P2;PMS_P1;PMS_P2;Temp;Humidity;BMP_temperature;BMP_pressure;BME280_temperature;BME280_humidity;BME280_pressure;Samples;Min_cycle;Max_cycle;Signal;HPM_P1;HPM_P2
2022/05/23 00:00:14;;;;;;;0.00;0.00;;;;;;;;;;1746105;28;20260;-73
2022/05/23 00:01:06;;;;;;;0.00;0.00;;;;;;;;;;1746339;28;20255;-73
2022/05/23 00:01:57;;;;;;;0.00;0.00;;;;;;;;;;1747835;28;20689;-73
2022/05/23 00:02:50;;;;;;;0.00;0.00;;;;;;;;;;1745279;28;20278;-73
2022/05/23 00:03:41;;;;;;;0.00;0.00;;;;;;;;;;1747842;28;20217;-73
2022/05/23 00:04:33;;;;;;;0.00;0.00;;;;;;;;;;1749385;28;20205;-73
2022/05/23 00:05:25;;;;;;;0.00;0.00;;;;;;;;;;1745988;28;20202;-73
2022/05/23 00:06:19;;;;;;;0.00;0.00;;;;;;;;;;1740293;28;20294;-73
2022/05/23 00:07:12;;;;;;;0.00;0.00;;;;;;;;;;1737622;28;20471;-73
2022/05/23 00:08:04;;;;;;;0.00;0.00;;;;;;;;;;1743899;28;20202;-73
2022/05/23 00:08:55;;;;;;;0.00;0.00;;;;;;;;;;1747023;28;20209;-73
2022/05/23 00:09:49;;;;;;;0.00;0.00;;;;;;;;;;1746229;28;20296;-73
2022/05/23 00:10:40;;;;;;;0.00;0.00;;;;;;;;;;1738744;28;20568;-74
2022/05/23 00:11:32;;;;;;;0.00;0.00;;;;;;;;;;1746439;28;20204;-73
2022/05/23 00:12:24;;;;;;;0.00;0.00;;;;;;;;;;1746362;28;20202;-73
2022/05/23 00:13:16;;;;;;;0.00;0.00;;;;;;;;;;1745860;28;20222;-73
2022/05/23 00:14:07;;;;;;;0.00;0.00;;;;;;;;;;1746279;28;20198;-73
2022/05/23 00:14:59;;;;;;;0.00;0.00;;;;;;;;;;1746397;28;20236;-73
2022/05/23 00:15:50;;;;;;;0.00;0.00;;;;;;;;;;1744975;28;20455;-73
2022/05/23 00:16:44;;;;;;;0.00;0.00;;;;;;;;;;1746222;28;20206;-74
2022/05/23 00:17:35;;;;;;;0.00;0.00;;;;;;;;;;1745898;28;20209;-74
2022/05/23 00:18:28;;;;;;;0.00;0.00;;;;;;;;;;1746477;28;20241;-74
2022/05/23 00:19:19;;;;;;;0.00;0.00;;;;;;;;;;1744547;28;20218;-73
2022/05/23 00:20:14;;;;;;;0.00;0.00;;;;;;;;;;1747577;28;20663;-73
2022/05/23 00:21:08;;;;;;;0.00;0.00;;;;;;;;;;1746639;28;20574;-73
2022/05/23 00:22:00;;;;;;;0.00;0.00;;;;;;;;;;1746642;28;20194;-73
2022/05/23 00:22:51;;;;;;;0.00;0.00;;;;;;;;;;1745939;28;20211;-73
2022/05/23 00:23:42;;;;;;;0.00;0.00;;;;;;;;;;1746917;28;20209;-73
2022/05/23 00:24:35;;;;;;;0.00;0.00;;;;;;;;;;1746195;28;20198;-73
2022/05/23 00:25:28;;;;;;;0.00;0.00;;;;;;;;;;1744599;28;20513;-73
2022/05/23 00:26:21;;;;;;;0.00;0.00;;;;;;;;;;1745599;28;20198;-74
2022/05/23 00:27:13;;;;;;;0.00;0.00;;;;;;;;;;1746950;28;20206;-73
2022/05/23 00:28:06;;;;;;;0.00;0.00;;;;;;;;;;1746205;28;20624;-74
2022/05/23 00:28:57;;;;;;;0.00;0.00;;;;;;;;;;1746940;28;20207;-74
2022/05/23 00:29:49;;;;;;;0.00;0.00;;;;;;;;;;1746722;28;20317;-74
2022/05/23 00:30:41;;;;;;;0.00;0.00;;;;;;;;;;1739025;28;20435;-74
2022/05/23 00:31:33;;;;;;;0.00;0.00;;;;;;;;;;1748624;28;20194;-74
2022/05/23 00:35:54;;;;;;;0.00;0.00;;;;;;;;;;1740621;28;20637;-73
2022/05/23 00:36:47;;;;;;;0.00;0.00;;;;;;;;;;1746386;28;20206;-73
2022/05/23 00:37:38;;;;;;;0.00;0.00;;;;;;;;;;1745898;28;20206;-73
2022/05/23 00:38:30;;;;;;;0.00;0.00;;;;;;;;;;1745423;28;20198;-73
2022/05/23 00:39:21;;;;;;;0.00;0.00;;;;;;;;;;1745867;28;20216;-73
2022/05/23 00:40:23;;;;;;;0.00;0.00;;;;;;;;;;1745524;28;20667;-73
2022/05/23 00:43:49;;;;;;;0.00;0.00;;;;;;;;;;1746404;28;20198;-72
2022/05/23 00:44:41;;;;;;;0.00;0.00;;;;;;;;;;1745413;28;20591;-72
2022/05/23 00:45:33;;;;;;;0.00;0.00;;;;;;;;;;1744824;28;20257;-72
2022/05/23 00:46:25;;;;;;;0.00;0.00;;;;;;;;;;1746084;28;20353;-73
2022/05/23 00:47:17;;;;;;;0.00;0.00;;;;;;;;;;1746023;28;20203;-73
2022/05/23 00:48:10;;;;;;;0.00;0.00;;;;;;;;;;1746310;28;20202;-73
2022/05/23 00:49:03;;;;;;;0.00;0.00;;;;;;;;;;1740128;28;20632;-73
2022/05/23 00:49:55;;;;;;;0.00;0.00;;;;;;;;;;1746217;28;20670;-73
2022/05/23 00:50:47;;;;;;;0.00;0.00;;;;;;;;;;1744759;28;20233;-73
2022/05/23 00:51:40;;;;;;;0.00;0.00;;;;;;;;;;1744794;28;20417;-74
2022/05/23 00:52:33;;;;;;;0.00;0.00;;;;;;;;;;1746025;28;20199;-73
2022/05/23 00:53:28;;;;;;;0.00;0.00;;;;;;;;;;1748392;28;20320;-73
2022/05/23 00:54:20;;;;;;;0.00;0.00;;;;;;;;;;1746166;28;20210;-74
2022/05/23 00:55:15;;;;;;;0.00;0.00;;;;;;;;;;1745526;28;20202;-74
2022/05/23 00:56:06;;;;;;;0.00;0.00;;;;;;;;;;1745526;28;20234;-74
2022/05/23 00:57:00;;;;;;;0.00;0.00;;;;;;;;;;1745751;28;20213;-73
2022/05/23 00:57:54;;;;;;;0.00;0.00;;;;;;;;;;1745261;28;20202;-73
2022/05/23 00:58:47;;;;;;;0.00;0.00;;;;;;;;;;1746725;28;20812;-73
2022/05/23 00:59:39;;;;;;;0.00;0.00;;;;;;;;;;1745442;28;20206;-73
2022/05/23 01:00:31;;;;;;;0.00;0.00;;;;;;;;;;1744971;28;20694;-73
2022/05/23 01:01:25;;;;;;;0.00;0.00;;;;;;;;;;1745583;28;20202;-73
2022/05/23 01:02:18;;;;;;;0.00;0.00;;;;;;;;;;1746371;28;20876;-73
2022/05/23 01:03:12;;;;;;;0.00;0.00;;;;;;;;;;1745642;28;20202;-73
2022/05/23 01:04:05;;;;;;;0.00;0.00;;;;;;;;;;1743711;28;20190;-73
2022/05/23 01:04:57;;;;;;;0.00;0.00;;;;;;;;;;1747976;28;20205;-73
2022/05/23 01:05:51;;;;;;;0.00;0.00;;;;;;;;;;1745059;28;20206;-73
2022/05/23 01:06:42;;;;;;;0.00;0.00;;;;;;;;;;1746017;28;20216;-73
2022/05/23 01:07:34;;;;;;;0.00;0.00;;;;;;;;;;1747751;28;20587;-73
2022/05/23 01:08:26;;;;;;;0.00;0.00;;;;;;;;;;1746205;28;20206;-73
2022/05/23 01:09:20;;;;;;;0.00;0.00;;;;;;;;;;1745721;28;20293;-73
2022/05/23 01:10:11;;;;;;;0.00;0.00;;;;;;;;;;1744037;28;20688;-73
2022/05/23 01:11:03;;;;;;;0.00;0.00;;;;;;;;;;1747270;28;20239;-73
2022/05/23 01:11:56;;;;;;;0.00;0.00;;;;;;;;;;1746340;28;20260;-73
2022/05/23 01:12:50;;;;;;;0.00;0.00;;;;;;;;;;1745705;28;20198;-73
2022/05/23 01:13:41;;;;;;;0.00;0.00;;;;;;;;;;1746546;28;20689;-73
2022/05/23 01:14:46;;;;;;;0.00;0.00;;;;;;;;;;1745826;28;20202;-73
2022/05/23 01:15:37;;;;;;;0.00;0.00;;;;;;;;;;1737812;28;20231;-73
2022/05/23 01:16:29;;;;;;;0.00;0.00;;;;;;;;;;1744797;28;20210;-73
2022/05/23 01:17:22;;;;;;;0.00;0.00;;;;;;;;;;1746183;28;20221;-73
2022/05/23 01:18:14;;;;;;;0.00;0.00;;;;;;;;;;1744858;28;20195;-73
2022/05/23 01:19:05;;;;;;;0.00;0.00;;;;;;;;;;1746194;28;20202;-73
2022/05/23 01:19:57;;;;;;;0.00;0.00;;;;;;;;;;1745678;28;20293;-73
2022/05/23 01:20:51;;;;;;;0.00;0.00;;;;;;;;;;1744599;28;20214;-74
2022/05/23 01:21:46;;;;;;;0.00;0.00;;;;;;;;;;1745640;28;20291;-73
2022/05/23 01:22:41;;;;;;;0.00;0.00;;;;;;;;;;1747006;28;20592;-73
2022/05/23 01:23:37;;;;;;;0.00;0.00;;;;;;;;;;1746321;28;20261;-72
2022/05/23 01:24:30;;;;;;;0.00;0.00;;;;;;;;;;1745796;28;20221;-72
2022/05/23 01:25:31;;;;;;;0.00;0.00;;;;;;;;;;1744560;28;20202;-72
2022/05/23 01:26:23;;;;;;;0.00;0.00;;;;;;;;;;1745654;28;20628;-73
2022/05/23 01:27:15;;;;;;;0.00;0.00;;;;;;;;;;1746011;28;20218;-74
2022/05/23 01:28:07;;;;;;;0.00;0.00;;;;;;;;;;1745289;28;20670;-74
2022/05/23 01:28:59;;;;;;;0.00;0.00;;;;;;;;;;1745474;28;20194;-74
2022/05/23 01:29:51;;;;;;;0.00;0.00;;;;;;;;;;1745582;28;20257;-74
2022/05/23 01:30:43;;;;;;;0.00;0.00;;;;;;;;;;1738245;28;20234;-74
2022/05/23 01:31:35;;;;;;;0.00;0.00;;;;;;;;;;1746780;28;20646;-74
2022/05/23 01:32:26;;;;;;;0.00;0.00;;;;;;;;;;1746239;28;20230;-73
2022/05/23 01:33:19;;;;;;;0.00;0.00;;;;;;;;;;1745775;28;20271;-73
2022/05/23 01:34:10;;;;;;;0.00;0.00;;;;;;;;;;1747795;28;20216;-73
2022/05/23 01:35:02;;;;;;;0.00;0.00;;;;;;;;;;1745089;28;20221;-73
2022/05/23 01:35:53;;;;;;;0.00;0.00;;;;;;;;;;1744249;28;20230;-73
2022/05/23 01:36:45;;;;;;;0.00;0.00;;;;;;;;;;1745756;28;20228;-73
2022/05/23 01:37:37;;;;;;;0.00;0.00;;;;;;;;;;1745524;28;20283;-73
2022/05/23 01:38:29;;;;;;;0.00;0.00;;;;;;;;;;1748180;28;20259;-73
2022/05/23 01:39:20;;;;;;;0.00;0.00;;;;;;;;;;1745603;28;20217;-73
2022/05/23 01:40:14;;;;;;;0.00;0.00;;;;;;;;;;1745621;28;20204;-73
2022/05/23 01:41:08;;;;;;;0.00;0.00;;;;;;;;;;1745711;28;20554;-72
2022/05/23 01:42:00;;;;;;;0.00;0.00;;;;;;;;;;1745872;28;20241;-73
2022/05/23 01:42:52;;;;;;;0.00;0.00;;;;;;;;;;1745789;28;20532;-73
2022/05/23 01:43:44;;;;;;;0.00;0.00;;;;;;;;;;1745993;28;20301;-73
2022/05/23 01:44:36;;;;;;;0.00;0.00;;;;;;;;;;1745896;28;20219;-73
2022/05/23 01:45:32;;;;;;;0.00;0.00;;;;;;;;;;1744426;28;20199;-73
2022/05/23 01:46:24;;;;;;;0.00;0.00;;;;;;;;;;1745550;28;20232;-74
2022/05/23 01:47:18;;;;;;;0.00;0.00;;;;;;;;;;1744934;28;20257;-74
2022/05/23 01:48:09;;;;;;;0.00;0.00;;;;;;;;;;1745229;28;20225;-74
2022/05/23 01:49:01;;;;;;;0.00;0.00;;;;;;;;;;1739703;28;20237;-74
2022/05/23 01:49:53;;;;;;;0.00;0.00;;;;;;;;;;1745543;28;20206;-73
2022/05/23 01:50:45;;;;;;;0.00;0.00;;;;;;;;;;1744248;28;20230;-74
2022/05/23 01:51:36;;;;;;;0.00;0.00;;;;;;;;;;1746418;28;20202;-73
2022/05/23 01:52:27;;;;;;;0.00;0.00;;;;;;;;;;1745629;28;20297;-73
2022/05/23 01:53:19;;;;;;;0.00;0.00;;;;;;;;;;1747292;28;20859;-72
2022/05/23 01:54:12;;;;;;;0.00;0.00;;;;;;;;;;1745577;28;20199;-73
2022/05/23 01:55:04;;;;;;;0.00;0.00;;;;;;;;;;1745784;28;20209;-73
2022/05/23 01:55:58;;;;;;;0.00;0.00;;;;;;;;;;1744232;28;20245;-73
2022/05/23 01:56:50;;;;;;;0.00;0.00;;;;;;;;;;1745215;28;20561;-73
2022/05/23 01:57:42;;;;;;;0.00;0.00;;;;;;;;;;1745186;28;20728;-73
2022/05/23 02:02:05;;;;;;;0.00;0.00;;;;;;;;;;1741522;28;20206;-72
2022/05/23 02:02:56;;;;;;;0.00;0.00;;;;;;;;;;1743877;28;20248;-73
2022/05/23 02:03:49;;;;;;;0.00;0.00;;;;;;;;;;1746147;28;20252;-73
2022/05/23 02:04:40;;;;;;;0.00;0.00;;;;;;;;;;1745385;28;20217;-73
2022/05/23 02:05:33;;;;;;;0.00;0.00;;;;;;;;;;1744430;28;20567;-73
2022/05/23 02:06:24;;;;;;;0.00;0.00;;;;;;;;;;1744656;28;20549;-73
2022/05/23 02:07:16;;;;;;;0.10;0.10;;;;;;;;;;1745957;28;20207;-73
2022/05/23 02:08:08;;;;;;;0.00;0.00;;;;;;;;;;1745354;28;20668;-73
2022/05/23 02:09:00;;;;;;;0.00;0.00;;;;;;;;;;1745776;28;20198;-73
2022/05/23 02:09:51;;;;;;;0.00;0.00;;;;;;;;;;1745624;28;20221;-73
2022/05/23 02:10:44;;;;;;;0.00;0.00;;;;;;;;;;1737767;28;20230;-73
2022/05/23 02:11:35;;;;;;;0.00;0.00;;;;;;;;;;1745342;28;20206;-73
2022/05/23 02:12:29;;;;;;;0.00;0.00;;;;;;;;;;1745091;28;20210;-73
2022/05/23 02:13:20;;;;;;;0.00;0.00;;;;;;;;;;1745430;28;20230;-73
2022/05/23 02:14:12;;;;;;;0.00;0.00;;;;;;;;;;1745914;28;20518;-73
2022/05/23 02:15:05;;;;;;;0.00;0.00;;;;;;;;;;1745323;28;20628;-73
2022/05/23 02:15:57;;;;;;;0.00;0.00;;;;;;;;;;1744161;28;20234;-73
2022/05/23 02:16:48;;;;;;;0.00;0.00;;;;;;;;;;1745439;28;20199;-73
2022/05/23 02:17:40;;;;;;;0.00;0.00;;;;;;;;;;1745364;28;20217;-73
2022/05/23 02:18:32;;;;;;;0.00;0.00;;;;;;;;;;1747066;28;21958;-73
2022/05/23 02:19:24;;;;;;;0.00;0.00;;;;;;;;;;1745019;28;20209;-73
2022/05/23 02:20:17;;;;;;;0.00;0.00;;;;;;;;;;1743903;28;20213;-74
2022/05/23 02:21:11;;;;;;;0.00;0.00;;;;;;;;;;1745807;28;20260;-74
2022/05/23 02:22:02;;;;;;;0.00;0.00;;;;;;;;;;1746154;28;20198;-73
2022/05/23 02:22:55;;;;;;;0.00;0.00;;;;;;;;;;1745421;28;20325;-73
2022/05/23 02:23:46;;;;;;;0.00;0.00;;;;;;;;;;1745967;28;20198;-73
2022/05/23 02:24:38;;;;;;;0.00;0.00;;;;;;;;;;1744758;28;20288;-73
2022/05/23 02:25:30;;;;;;;0.00;0.00;;;;;;;;;;1743927;28;20237;-73
2022/05/23 02:26:22;;;;;;;0.00;0.00;;;;;;;;;;1745384;28;20209;-73
2022/05/23 02:27:13;;;;;;;0.00;0.00;;;;;;;;;;1745620;28;20213;-73
2022/05/23 02:28:07;;;;;;;0.00;0.00;;;;;;;;;;1745479;28;20321;-72
2022/05/23 02:28:59;;;;;;;0.00;0.00;;;;;;;;;;1746177;28;20640;-72
2022/05/23 02:29:51;;;;;;;0.00;0.00;;;;;;;;;;1744589;28;20207;-72
2022/05/23 02:30:43;;;;;;;0.00;0.00;;;;;;;;;;1743498;28;20238;-73
2022/05/23 02:31:35;;;;;;;0.00;0.00;;;;;;;;;;1743911;28;20202;-73
2022/05/23 02:32:26;;;;;;;0.00;0.00;;;;;;;;;;1740321;28;20203;-73
2022/05/23 02:33:19;;;;;;;0.00;0.00;;;;;;;;;;1747546;28;20237;-73
2022/05/23 02:34:10;;;;;;;0.10;0.10;;;;;;;;;;1747557;28;20198;-73
2022/05/23 02:35:03;;;;;;;0.03;0.03;;;;;;;;;;1745462;28;20501;-73
2022/05/23 02:35:54;;;;;;;0.00;0.00;;;;;;;;;;1739412;28;20231;-73
2022/05/23 02:36:46;;;;;;;0.00;0.00;;;;;;;;;;1745465;28;20704;-73
2022/05/23 02:37:38;;;;;;;0.00;0.00;;;;;;;;;;1744551;28;20214;-73
2022/05/23 02:38:30;;;;;;;0.00;0.00;;;;;;;;;;1745880;28;20203;-73
2022/05/23 02:39:21;;;;;;;0.00;0.00;;;;;;;;;;1745518;28;20202;-73
2022/05/23 02:40:14;;;;;;;0.00;0.00;;;;;;;;;;1746301;28;20202;-73
2022/05/23 02:41:05;;;;;;;0.00;0.00;;;;;;;;;;1738421;28;20246;-73
2022/05/23 02:41:57;;;;;;;0.00;0.00;;;;;;;;;;1738755;28;20195;-73
2022/05/23 02:42:48;;;;;;;0.00;0.00;;;;;;;;;;1738547;28;20203;-73
2022/05/23 02:43:42;;;;;;;0.00;0.00;;;;;;;;;;1738136;28;20620;-73
2022/05/23 02:44:33;;;;;;;0.00;0.00;;;;;;;;;;1738554;28;20218;-73
2022/05/23 02:45:25;;;;;;;0.00;0.00;;;;;;;;;;1736973;28;20258;-73
2022/05/23 02:46:17;;;;;;;0.00;0.00;;;;;;;;;;1738751;28;20206;-73
2022/05/23 02:47:09;;;;;;;0.00;0.00;;;;;;;;;;1738779;28;20676;-73
2022/05/23 02:48:01;;;;;;;0.00;0.00;;;;;;;;;;1740298;28;20206;-73
2022/05/23 02:48:53;;;;;;;0.00;0.00;;;;;;;;;;1739242;28;20719;-72
2022/05/23 02:49:45;;;;;;;0.00;0.00;;;;;;;;;;1739032;28;20684;-72
2022/05/23 02:50:37;;;;;;;0.00;0.00;;;;;;;;;;1736663;28;20304;-72
2022/05/23 02:51:28;;;;;;;0.00;0.00;;;;;;;;;;1739317;28;20503;-73
2022/05/23 02:52:20;;;;;;;0.00;0.00;;;;;;;;;;1738742;28;20465;-73
2022/05/23 02:53:12;;;;;;;0.00;0.00;;;;;;;;;;1740192;28;20195;-74
2022/05/23 02:54:04;;;;;;;0.00;0.00;;;;;;;;;;1732567;28;20200;-73
2022/05/23 02:54:55;;;;;;;0.00;0.00;;;;;;;;;;1738650;28;20213;-73
2022/05/23 02:55:47;;;;;;;0.00;0.00;;;;;;;;;;1736707;28;20227;-73
2022/05/23 02:56:38;;;;;;;0.00;0.00;;;;;;;;;;1737829;28;20218;-72
2022/05/23 02:57:30;;;;;;;0.00;0.00;;;;;;;;;;1738605;28;20203;-72
2022/05/23 02:58:22;;;;;;;0.00;0.00;;;;;;;;;;1738429;28;20203;-72
2022/05/23 02:59:15;;;;;;;0.00;0.00;;;;;;;;;;1738746;28;20310;-73
2022/05/23 03:00:07;;;;;;;0.00;0.00;;;;;;;;;;1738211;28;20217;-73
2022/05/23 03:01:00;;;;;;;0.00;0.00;;;;;;;;;;1736669;28;20308;-73
2022/05/23 03:03:04;;;;;;;0.00;0.00;;;;;;;;;;1738081;28;20258;-73
2022/05/23 03:03:55;;;;;;;0.00;0.00;;;;;;;;;;1739153;28;20213;-73
2022/05/23 03:04:47;;;;;;;0.00;0.00;;;;;;;;;;1738130;28;20225;-73
2022/05/23 03:05:39;;;;;;;0.00;0.00;;;;;;;;;;1737618;28;20242;-74
2022/05/23 03:06:31;;;;;;;0.00;0.00;;;;;;;;;;1738255;28;20211;-73
2022/05/23 03:07:23;;;;;;;0.00;0.00;;;;;;;;;;1732377;28;20204;-73
2022/05/23 03:08:17;;;;;;;0.00;0.00;;;;;;;;;;1737967;28;20211;-73
2022/05/23 03:09:09;;;;;;;0.00;0.00;;;;;;;;;;1738242;28;20234;-73
2022/05/23 03:10:01;;;;;;;0.00;0.00;;;;;;;;;;1738367;28;20199;-73
2022/05/23 03:10:53;;;;;;;0.00;0.00;;;;;;;;;;1737132;28;20242;-73
2022/05/23 03:11:45;;;;;;;0.00;0.00;;;;;;;;;;1738263;28;20195;-73
2022/05/23 03:12:36;;;;;;;0.00;0.00;;;;;;;;;;1738405;28;20211;-73
2022/05/23 03:13:29;;;;;;;0.00;0.00;;;;;;;;;;1738618;28;20608;-73
2022/05/23 03:14:21;;;;;;;0.00;0.00;;;;;;;;;;1738308;28;20219;-73
2022/05/23 03:15:14;;;;;;;0.00;0.00;;;;;;;;;;1737167;28;20217;-73
2022/05/23 03:16:07;;;;;;;0.00;0.00;;;;;;;;;;1738233;28;20322;-73
2022/05/23 03:17:03;;;;;;;0.00;0.00;;;;;;;;;;1738423;28;20214;-74
2022/05/23 03:17:54;;;;;;;0.00;0.00;;;;;;;;;;1738515;28;20200;-74
2022/05/23 03:18:46;;;;;;;0.00;0.00;;;;;;;;;;1738849;28;20518;-74
2022/05/23 03:19:38;;;;;;;0.00;0.00;;;;;;;;;;1738195;28;20633;-73
2022/05/23 03:20:30;;;;;;;0.00;0.00;;;;;;;;;;1738878;28;20286;-74
2022/05/23 03:27:09;;;;;;;0.00;0.00;;;;;;;;;;1738760;28;20187;-72
2022/05/23 03:28:01;;;;;;;0.00;0.00;;;;;;;;;;1737890;28;20203;-72
2022/05/23 03:28:53;;;;;;;0.00;0.00;;;;;;;;;;1739263;28;20226;-72
2022/05/23 03:29:46;;;;;;;0.00;0.00;;;;;;;;;;1738630;28;20207;-72
2022/05/23 03:30:38;;;;;;;0.00;0.00;;;;;;;;;;1737402;28;20569;-73
2022/05/23 03:31:29;;;;;;;0.00;0.00;;;;;;;;;;1740062;28;20195;-73
2022/05/23 03:32:23;;;;;;;0.00;0.00;;;;;;;;;;1738994;28;20262;-73
2022/05/23 03:33:15;;;;;;;0.00;0.00;;;;;;;;;;1738248;28;20955;-73
2022/05/23 03:34:07;;;;;;;0.00;0.00;;;;;;;;;;1739503;28;20195;-73
2022/05/23 03:34:59;;;;;;;0.00;0.00;;;;;;;;;;1739190;28;20211;-73
2022/05/23 03:35:51;;;;;;;0.00;0.00;;;;;;;;;;1737470;28;20526;-73
2022/05/23 03:36:43;;;;;;;0.00;0.00;;;;;;;;;;1738510;28;20977;-73
2022/05/23 03:37:34;;;;;;;0.00;0.00;;;;;;;;;;1738154;28;20203;-73
2022/05/23 03:38:27;;;;;;;0.00;0.00;;;;;;;;;;1738157;28;20240;-73
2022/05/23 03:39:18;;;;;;;0.00;0.00;;;;;;;;;;1738178;28;20277;-73
2022/05/23 03:40:11;;;;;;;0.00;0.00;;;;;;;;;;1739731;28;20251;-73
2022/05/23 03:41:05;;;;;;;0.00;0.00;;;;;;;;;;1743610;28;20242;-73
2022/05/23 03:41:57;;;;;;;0.00;0.00;;;;;;;;;;1745561;28;20545;-73
2022/05/23 03:42:48;;;;;;;0.00;0.00;;;;;;;;;;1746539;28;20237;-73
2022/05/23 03:43:40;;;;;;;0.00;0.00;;;;;;;;;;1746950;28;20292;-72
2022/05/23 03:44:32;;;;;;;0.00;0.00;;;;;;;;;;1746465;28;20210;-72
2022/05/23 03:45:25;;;;;;;0.00;0.00;;;;;;;;;;1744884;28;20264;-72
2022/05/23 03:46:17;;;;;;;0.00;0.00;;;;;;;;;;1745845;28;20595;-72
2022/05/23 03:47:09;;;;;;;0.00;0.00;;;;;;;;;;1746415;28;20201;-73
2022/05/23 03:48:00;;;;;;;0.00;0.00;;;;;;;;;;1748468;28;20218;-73
2022/05/23 03:48:53;;;;;;;0.00;0.00;;;;;;;;;;1746659;28;20204;-73
2022/05/23 03:49:44;;;;;;;0.00;0.00;;;;;;;;;;1746506;28;20206;-73
2022/05/23 03:50:37;;;;;;;0.00;0.00;;;;;;;;;;1744990;28;20245;-73
2022/05/23 03:51:28;;;;;;;0.00;0.00;;;;;;;;;;1746223;28;20478;-73
2022/05/23 03:52:21;;;;;;;0.00;0.00;;;;;;;;;;1745945;28;20213;-73
2022/05/23 03:53:12;;;;;;;0.00;0.00;;;;;;;;;;1747811;28;20209;-74
2022/05/23 03:54:04;;;;;;;0.00;0.00;;;;;;;;;;1746565;28;20275;-73
2022/05/23 03:54:55;;;;;;;0.00;0.00;;;;;;;;;;1746317;28;20202;-73
2022/05/23 03:55:48;;;;;;;0.10;0.10;;;;;;;;;;1745443;28;20687;-73
2022/05/23 03:56:39;;;;;;;0.00;0.00;;;;;;;;;;1746261;28;20429;-73
2022/05/23 03:57:31;;;;;;;0.00;0.00;;;;;;;;;;1746658;28;20198;-73
2022/05/23 03:58:22;;;;;;;0.00;0.00;;;;;;;;;;1745913;28;20206;-73
2022/05/23 03:59:14;;;;;;;0.00;0.00;;;;;;;;;;1745718;28;20285;-74
2022/05/23 04:00:07;;;;;;;0.00;0.00;;;;;;;;;;1746020;28;20210;-73
2022/05/23 04:01:06;;;;;;;0.00;0.00;;;;;;;;;;1744921;28;20280;-73
2022/05/23 04:01:58;;;;;;;0.00;0.00;;;;;;;;;;1746744;28;20191;-72
2022/05/23 04:02:50;;;;;;;0.00;0.00;;;;;;;;;;1746535;28;20204;-72
2022/05/23 04:03:41;;;;;;;0.00;0.00;;;;;;;;;;1746660;28;20213;-72
2022/05/23 04:04:33;;;;;;;0.00;0.00;;;;;;;;;;1745674;28;20606;-72
2022/05/23 04:05:25;;;;;;;0.00;0.00;;;;;;;;;;1744228;28;20203;-72
2022/05/23 04:06:17;;;;;;;0.00;0.00;;;;;;;;;;1746868;28;20213;-72
2022/05/23 04:07:08;;;;;;;0.00;0.00;;;;;;;;;;1746478;28;20201;-72
2022/05/23 04:08:01;;;;;;;0.00;0.00;;;;;;;;;;1746167;28;20655;-72
2022/05/23 04:08:52;;;;;;;0.00;0.00;;;;;;;;;;1747071;28;20624;-72
2022/05/23 04:09:44;;;;;;;0.00;0.00;;;;;;;;;;1745966;28;20202;-72
2022/05/23 04:10:35;;;;;;;0.00;0.00;;;;;;;;;;1744913;28;20304;-72
2022/05/23 04:11:27;;;;;;;0.00;0.00;;;;;;;;;;1745321;28;20324;-72
2022/05/23 04:12:19;;;;;;;0.00;0.00;;;;;;;;;;1746766;28;20210;-72
2022/05/23 04:13:11;;;;;;;0.00;0.00;;;;;;;;;;1746567;28;20205;-72
2022/05/23 04:14:02;;;;;;;0.00;0.00;;;;;;;;;;1746511;28;20202;-72
2022/05/23 04:14:54;;;;;;;0.00;0.00;;;;;;;;;;1746305;28;20194;-72
2022/05/23 04:15:46;;;;;;;0.10;0.10;;;;;;;;;;1739402;28;20238;-72
2022/05/23 04:16:39;;;;;;;0.00;0.00;;;;;;;;;;1746352;28;20213;-72
2022/05/23 04:17:30;;;;;;;0.00;0.00;;;;;;;;;;1745611;28;20587;-73
2022/05/23 04:18:23;;;;;;;0.00;0.00;;;;;;;;;;1746299;28;20206;-73
2022/05/23 04:19:14;;;;;;;0.00;0.00;;;;;;;;;;1746291;28;20229;-73
2022/05/23 04:20:08;;;;;;;0.00;0.00;;;;;;;;;;1743838;28;20191;-73
2022/05/23 04:21:01;;;;;;;0.00;0.00;;;;;;;;;;1744951;28;20868;-73
2022/05/23 04:21:53;;;;;;;0.00;0.00;;;;;;;;;;1746579;28;20620;-73
2022/05/23 04:22:46;;;;;;;0.00;0.00;;;;;;;;;;1746558;28;20202;-73
2022/05/23 04:23:37;;;;;;;0.00;0.00;;;;;;;;;;1746099;28;20655;-73
2022/05/23 04:24:29;;;;;;;0.00;0.00;;;;;;;;;;1748175;28;20677;-72
2022/05/23 04:25:20;;;;;;;0.00;0.00;;;;;;;;;;1744998;28;20519;-72
2022/05/23 04:26:12;;;;;;;0.00;0.00;;;;;;;;;;1746338;28;20198;-72
2022/05/23 04:27:04;;;;;;;0.00;0.00;;;;;;;;;;1746505;28;20198;-73
2022/05/23 04:27:56;;;;;;;0.00;0.00;;;;;;;;;;1746062;28;20206;-73
2022/05/23 04:28:47;;;;;;;0.00;0.00;;;;;;;;;;1746712;28;20536;-73
2022/05/23 04:29:39;;;;;;;0.00;0.00;;;;;;;;;;1745629;28;20345;-73
2022/05/23 04:30:31;;;;;;;0.00;0.00;;;;;;;;;;1744419;28;21937;-73
2022/05/23 04:31:23;;;;;;;0.00;0.00;;;;;;;;;;1746645;28;20203;-73
2022/05/23 04:35:46;;;;;;;0.00;0.00;;;;;;;;;;1739107;28;20281;-73
2022/05/23 04:36:37;;;;;;;0.00;0.00;;;;;;;;;;1745024;28;20324;-73
2022/05/23 04:37:29;;;;;;;0.00;0.00;;;;;;;;;;1746346;28;20632;-73
2022/05/23 04:38:20;;;;;;;0.00;0.00;;;;;;;;;;1745721;28;20259;-73
2022/05/23 04:39:13;;;;;;;0.00;0.00;;;;;;;;;;1746498;28;20621;-73
2022/05/23 04:40:04;;;;;;;0.00;0.00;;;;;;;;;;1745942;28;20710;-73
2022/05/23 04:40:57;;;;;;;0.00;0.00;;;;;;;;;;1744734;28;20238;-73
2022/05/23 04:41:49;;;;;;;0.00;0.00;;;;;;;;;;1746070;28;20207;-73
2022/05/23 04:42:41;;;;;;;0.00;0.00;;;;;;;;;;1745330;28;20302;-73
2022/05/23 04:43:33;;;;;;;0.00;0.00;;;;;;;;;;1746469;28;20291;-73
2022/05/23 04:44:25;;;;;;;0.00;0.00;;;;;;;;;;1746355;28;20276;-73
2022/05/23 04:45:17;;;;;;;0.00;0.00;;;;;;;;;;1742445;28;20555;-73
2022/05/23 04:46:09;;;;;;;0.00;0.00;;;;;;;;;;1743959;28;20647;-73
2022/05/23 04:49:41;;;;;;;0.03;0.03;;;;;;;;;;1742090;28;20210;-73
2022/05/23 04:50:34;;;;;;;0.00;0.00;;;;;;;;;;1744968;28;20230;-73
2022/05/23 04:51:25;;;;;;;0.00;0.00;;;;;;;;;;1745589;28;20210;-73
2022/05/23 04:52:19;;;;;;;0.00;0.00;;;;;;;;;;1746401;28;20209;-73
2022/05/23 04:53:10;;;;;;;0.00;0.00;;;;;;;;;;1747181;28;20260;-73
2022/05/23 04:54:03;;;;;;;0.00;0.00;;;;;;;;;;1746791;28;20794;-73
2022/05/23 04:54:55;;;;;;;0.00;0.00;;;;;;;;;;1745407;28;20455;-73
2022/05/23 04:55:47;;;;;;;0.00;0.00;;;;;;;;;;1739060;28;20230;-73
2022/05/23 04:56:38;;;;;;;0.00;0.00;;;;;;;;;;1746247;28;20211;-73
2022/05/23 04:57:31;;;;;;;0.00;0.00;;;;;;;;;;1745831;28;20230;-73
2022/05/23 04:58:22;;;;;;;0.00;0.00;;;;;;;;;;1746324;28;20658;-73
2022/05/23 04:59:14;;;;;;;0.00;0.00;;;;;;;;;;1746338;28;20616;-72
2022/05/23 05:00:07;;;;;;;0.00;0.00;;;;;;;;;;1745801;28;20271;-72
2022/05/23 05:01:01;;;;;;;0.00;0.00;;;;;;;;;;1744480;28;20245;-73
2022/05/23 05:01:52;;;;;;;0.00;0.00;;;;;;;;;;1745640;28;20237;-73
2022/05/23 05:02:44;;;;;;;0.00;0.00;;;;;;;;;;1746158;28;20210;-73
2022/05/23 05:03:37;;;;;;;0.00;0.00;;;;;;;;;;1746281;28;20221;-73
2022/05/23 05:04:29;;;;;;;0.00;0.00;;;;;;;;;;1746078;28;20210;-73
2022/05/23 05:05:20;;;;;;;0.00;0.00;;;;;;;;;;1744792;28;20202;-74
2022/05/23 05:06:13;;;;;;;0.00;0.00;;;;;;;;;;1746557;28;20198;-74
2022/05/23 05:07:04;;;;;;;0.00;0.00;;;;;;;;;;1745889;28;20684;-74
2022/05/23 05:07:57;;;;;;;0.00;0.00;;;;;;;;;;1744745;28;20587;-74
2022/05/23 05:08:48;;;;;;;0.00;0.00;;;;;;;;;;1746537;28;20645;-74
2022/05/23 05:09:40;;;;;;;0.00;0.00;;;;;;;;;;1745814;28;20714;-73
2022/05/23 05:10:32;;;;;;;0.00;0.00;;;;;;;;;;1744818;28;20241;-74
2022/05/23 05:11:24;;;;;;;0.00;0.00;;;;;;;;;;1745888;28;20216;-74
2022/05/23 05:12:15;;;;;;;0.00;0.00;;;;;;;;;;1746383;28;20202;-74
2022/05/23 05:13:08;;;;;;;0.00;0.00;;;;;;;;;;1745433;28;20194;-74
2022/05/23 05:13:59;;;;;;;0.00;0.00;;;;;;;;;;1745529;28;20221;-74
2022/05/23 05:14:51;;;;;;;0.00;0.00;;;;;;;;;;1746205;28;20405;-74
2022/05/23 05:15:43;;;;;;;0.00;0.00;;;;;;;;;;1744815;28;20671;-74
2022/05/23 05:16:35;;;;;;;0.00;0.00;;;;;;;;;;1745712;28;20520;-74
2022/05/23 05:17:27;;;;;;;0.00;0.00;;;;;;;;;;1740272;28;20548;-74
2022/05/23 05:18:19;;;;;;;0.00;0.00;;;;;;;;;;1745645;28;20539;-74
2022/05/23 05:19:12;;;;;;;0.00;0.00;;;;;;;;;;1746080;28;20505;-74
2022/05/23 05:20:06;;;;;;;0.00;0.00;;;;;;;;;;1744478;28;20214;-74
2022/05/23 05:20:57;;;;;;;0.00;0.00;;;;;;;;;;1744796;28;20715;-74
2022/05/23 05:21:49;;;;;;;0.00;0.00;;;;;;;;;;1746171;28;20297;-73
2022/05/23 05:22:41;;;;;;;0.00;0.00;;;;;;;;;;1745965;28;20207;-73
2022/05/23 05:23:33;;;;;;;0.00;0.00;;;;;;;;;;1746309;28;20210;-73
2022/05/23 05:24:24;;;;;;;0.00;0.00;;;;;;;;;;1745793;28;20222;-73
2022/05/23 05:25:17;;;;;;;0.00;0.00;;;;;;;;;;1744455;28;20217;-73
2022/05/23 05:26:08;;;;;;;0.00;0.00;;;;;;;;;;1745343;28;20206;-73
2022/05/23 05:27:00;;;;;;;0.00;0.00;;;;;;;;;;1746061;28;20617;-74
2022/05/23 05:27:51;;;;;;;0.00;0.00;;;;;;;;;;1745745;28;20217;-74
2022/05/23 05:28:44;;;;;;;0.00;0.00;;;;;;;;;;1746079;28;20210;-74
2022/05/23 05:29:35;;;;;;;0.00;0.00;;;;;;;;;;1745564;28;20860;-74
2022/05/23 05:30:29;;;;;;;0.00;0.00;;;;;;;;;;1743903;28;20202;-74
2022/05/23 05:31:23;;;;;;;0.00;0.00;;;;;;;;;;1745718;28;20218;-74
2022/05/23 05:32:19;;;;;;;0.10;0.10;;;;;;;;;;1746128;28;20213;-74
2022/05/23 05:33:11;;;;;;;0.00;0.00;;;;;;;;;;1745869;28;20686;-74
2022/05/23 05:34:06;;;;;;;0.00;0.00;;;;;;;;;;1745285;28;20202;-74
2022/05/23 05:35:01;;;;;;;0.00;0.00;;;;;;;;;;1746960;28;20722;-74
2022/05/23 05:35:55;;;;;;;0.00;0.00;;;;;;;;;;1746747;28;20269;-74